Time;durP1;ratioP1;P1;durP2;ratioP2;P2;SDS_P1;SDS_P2;PMS_P1;PMS_P2;Temp;Humidity;BMP_temperature;BMP_pressure;BME280_temperature;BME280_humidity;BME280_pressure;Samples;Min_cycle;Max_cycle;Signal;HPM_P1;HPM_P2
2021/09/12 00:01:21;;;;;;;3.00;1.90;;;24.40;61.90;;;;;;5072520;28;20071;-48
2021/09/12 00:03:47;;;;;;;3.17;1.85;;;24.40;61.90;;;;;;5072159;28;20024;-56
2021/09/12 00:06:13;;;;;;;3.00;1.80;;;24.40;61.80;;;;;;5073687;28;20060;-49
2021/09/12 00:08:38;;;;;;;3.83;1.90;;;24.40;61.80;;;;;;5073635;28;20064;-50
2021/09/12 00:11:05;;;;;;;3.33;1.88;;;24.40;61.80;;;;;;5072805;28;20597;-48
2021/09/12 00:13:31;;;;;;;2.80;1.60;;;24.40;61.90;;;;;;5073952;28;20024;-49
2021/09/12 00:15:56;;;;;;;2.42;2.20;;;24.40;61.80;;;;;;5071410;28;20466;-48
2021/09/12 00:18:22;;;;;;;2.70;1.83;;;24.40;61.70;;;;;;5072618;28;20043;-48
2021/09/12 00:20:48;;;;;;;3.05;2.05;;;24.40;61.80;;;;;;5061546;28;20029;-57
2021/09/12 00:23:13;;;;;;;2.15;1.60;;;24.30;61.70;;;;;;5053670;28;20047;-51
2021/09/12 00:25:39;;;;;;;4.75;1.88;;;24.40;61.70;;;;;;5059695;28;20024;-48
2021/09/12 00:28:05;;;;;;;2.55;1.63;;;24.30;61.70;;;;;;5072637;28;20028;-55
2021/09/12 00:30:31;;;;;;;2.60;1.80;;;24.30;61.70;;;;;;5073585;28;20111;-48
2021/09/12 00:32:56;;;;;;;2.38;1.40;;;24.30;61.50;;;;;;5072986;28;20025;-50
2021/09/12 00:35:22;;;;;;;4.65;2.20;;;24.30;61.50;;;;;;5073804;28;20024;-51
2021/09/12 00:37:50;;;;;;;1.90;1.60;;;24.40;61.60;;;;;;5070873;28;20032;-56
2021/09/12 00:40:19;;;;;;;2.30;1.50;;;24.30;61.40;;;;;;5073594;28;20048;-51
2021/09/12 00:42:44;;;;;;;1.75;1.10;;;24.30;61.50;;;;;;5073386;28;20082;-48
2021/09/12 00:45:11;;;;;;;2.55;1.63;;;24.40;61.40;;;;;;5072684;28;20537;-48
2021/09/12 00:47:37;;;;;;;2.47;1.55;;;24.30;61.30;;;;;;5073170;28;20110;-48
2021/09/12 00:50:03;;;;;;;1.88;1.38;;;24.30;61.30;;;;;;5072766;28;20024;-52
2021/09/12 00:52:30;;;;;;;1.83;1.40;;;24.30;61.30;;;;;;5073039;28;20036;-49
2021/09/12 00:54:57;;;;;;;2.00;1.30;;;24.30;61.20;;;;;;5072627;28;20123;-48
2021/09/12 00:57:24;;;;;;;3.55;1.75;;;24.30;61.20;;;;;;5072997;28;20107;-48
2021/09/12 00:59:52;;;;;;;1.80;1.50;;;24.30;61.20;;;;;;5071939;28;20154;-56
2021/09/12 01:02:18;;;;;;;2.47;1.30;;;24.30;61.10;;;;;;5073161;28;20060;-49
2021/09/12 01:04:45;;;;;;;2.67;1.73;;;24.30;61.20;;;;;;5073035;28;20370;-50
2021/09/12 01:07:11;;;;;;;1.90;1.27;;;24.30;61.70;;;;;;5072216;28;20659;-51
2021/09/12 01:09:38;;;;;;;1.63;1.30;;;24.30;61.00;;;;;;5072071;28;20103;-53
2021/09/12 01:12:04;;;;;;;2.20;1.30;;;24.30;61.00;;;;;;5052245;28;20032;-51
2021/09/12 01:14:30;;;;;;;2.10;1.48;;;24.30;61.00;;;;;;5052439;28;20029;-52
2021/09/12 01:16:57;;;;;;;3.90;1.75;;;24.30;61.00;;;;;;5050326;28;20068;-48
2021/09/12 01:19:23;;;;;;;1.90;1.35;;;24.30;60.90;;;;;;5051426;28;20042;-48
2021/09/12 01:21:53;;;;;;;1.55;1.45;;;24.30;60.90;;;;;;5052569;28;20044;-55
2021/09/12 01:24:19;;;;;;;1.70;1.45;;;24.30;60.90;;;;;;5052306;28;20029;-48
2021/09/12 01:26:44;;;;;;;1.63;1.50;;;24.30;60.90;;;;;;5052616;28;20033;-48
2021/09/12 01:29:14;;;;;;;1.55;1.45;;;24.30;60.90;;;;;;5051056;28;20462;-48
2021/09/12 01:31:39;;;;;;;1.80;1.50;;;24.30;60.90;;;;;;5052287;28;20033;-48
2021/09/12 01:34:05;;;;;;;2.03;1.50;;;24.30;60.80;;;;;;5051428;28;20108;-47
2021/09/12 01:36:31;;;;;;;2.88;1.27;;;24.30;60.80;;;;;;5052709;28;20065;-49
2021/09/12 01:38:56;;;;;;;3.03;1.55;;;24.30;60.80;;;;;;5051704;28;20530;-49
2021/09/12 01:41:22;;;;;;;1.50;1.35;;;24.30;60.70;;;;;;5052287;28;20072;-49
2021/09/12 01:43:59;;;;;;;1.27;1.17;;;24.30;60.70;;;;;;5052450;28;20021;-48
2021/09/12 01:46:25;;;;;;;1.70;1.52;;;24.30;60.70;;;;;;5052355;28;20025;-49
2021/09/12 01:48:52;;;;;;;1.63;1.35;;;24.30;60.70;;;;;;5051419;28;20095;-56
2021/09/12 01:51:18;;;;;;;3.60;1.65;;;24.30;60.60;;;;;;5052376;28;20040;-52
2021/09/12 01:53:45;;;;;;;2.17;1.45;;;24.20;60.60;;;;;;5052349;28;20078;-50
2021/09/12 01:56:11;;;;;;;2.22;1.20;;;24.20;60.60;;;;;;5051545;28;20033;-52
2021/09/12 01:58:37;;;;;;;4.10;1.33;;;24.20;60.80;;;;;;5051749;28;20402;-49
2021/09/12 02:01:04;;;;;;;2.65;1.35;;;24.20;60.70;;;;;;5050857;28;20055;-51
2021/09/12 02:03:30;;;;;;;2.67;1.20;;;24.20;60.60;;;;;;5052279;28;20032;-48
2021/09/12 02:05:55;;;;;;;1.90;1.67;;;24.20;60.50;;;;;;5051624;28;20418;-50
2021/09/12 02:08:21;;;;;;;1.48;1.38;;;24.30;61.10;;;;;;5051897;28;20040;-50
2021/09/12 02:10:47;;;;;;;1.67;1.35;;;24.20;60.40;;;;;;5051701;28;20029;-49
2021/09/12 02:13:13;;;;;;;1.75;1.20;;;24.30;60.30;;;;;;5051192;28;20373;-47
2021/09/12 02:15:39;;;;;;;1.60;1.40;;;24.20;60.30;;;;;;5051586;28;20025;-50
2021/09/12 02:18:05;;;;;;;3.15;1.42;;;24.30;60.30;;;;;;5050947;28;20033;-50
2021/09/12 02:20:30;;;;;;;1.40;1.30;;;24.30;60.20;;;;;;5051576;28;20079;-51
2021/09/12 02:22:56;;;;;;;1.38;1.00;;;24.20;60.20;;;;;;5051159;28;20140;-50
2021/09/12 02:25:22;;;;;;;1.55;1.40;;;24.30;60.30;;;;;;5051634;28;20021;-52
2021/09/12 02:27:48;;;;;;;1.63;1.20;;;24.20;60.20;;;;;;5051880;28;20128;-50
2021/09/12 02:30:14;;;;;;;1.60;1.27;;;24.20;60.20;;;;;;5051464;28;20510;-51
2021/09/12 02:32:40;;;;;;;1.90;1.50;;;24.20;60.10;;;;;;5052093;28;20086;-50
2021/09/12 02:35:07;;;;;;;2.42;1.40;;;24.30;60.20;;;;;;5051333;28;20040;-50
2021/09/12 02:37:32;;;;;;;1.85;1.30;;;24.20;60.10;;;;;;5052175;28;20037;-51
2021/09/12 02:39:58;;;;;;;1.40;1.10;;;24.20;60.10;;;;;;5052170;28;20035;-53
2021/09/12 02:42:24;;;;;;;1.45;1.35;;;24.20;60.00;;;;;;5056590;28;20040;-50
2021/09/12 02:44:49;;;;;;;1.65;1.00;;;24.20;60.10;;;;;;5055841;28;20028;-48
2021/09/12 02:47:15;;;;;;;1.52;1.20;;;24.20;60.10;;;;;;5054685;28;20111;-48
2021/09/12 02:49:41;;;;;;;1.55;1.30;;;24.20;60.10;;;;;;5054387;28;20151;-49
2021/09/12 02:52:07;;;;;;;3.28;1.25;;;24.20;60.10;;;;;;5054573;28;20083;-48
2021/09/12 02:54:32;;;;;;;6.70;3.08;;;24.20;60.00;;;;;;5054240;28;20385;-50
2021/09/12 02:56:58;;;;;;;2.63;1.40;;;24.20;60.00;;;;;;5054068;28;20051;-50
2021/09/12 02:59:23;;;;;;;1.42;1.15;;;24.20;60.00;;;;;;5053181;28;20021;-49
2021/09/12 03:01:49;;;;;;;2.88;1.25;;;24.20;59.90;;;;;;5054577;28;20045;-52
2021/09/12 03:04:15;;;;;;;2.58;1.60;;;24.20;59.80;;;;;;5054401;28;20075;-49
2021/09/12 03:06:40;;;;;;;1.92;1.40;;;24.20;59.80;;;;;;5054169;28;20040;-49
2021/09/12 03:09:06;;;;;;;1.67;1.58;;;24.20;59.70;;;;;;5050227;28;20096;-49
2021/09/12 03:11:32;;;;;;;2.25;1.38;;;24.20;59.80;;;;;;5053551;28;20041;-50
2021/09/12 03:13:57;;;;;;;1.25;1.08;;;24.20;59.70;;;;;;5053232;28;20766;-50
2021/09/12 03:16:24;;;;;;;1.45;1.10;;;24.20;59.80;;;;;;5054061;28;20021;-50
2021/09/12 03:18:50;;;;;;;1.90;1.33;;;24.20;59.60;;;;;;5053778;28;20501;-50
2021/09/12 03:21:17;;;;;;;1.77;1.10;;;24.20;59.70;;;;;;5055465;28;20025;-49
2021/09/12 03:23:43;;;;;;;2.13;1.23;;;24.20;59.70;;;;;;5055514;28;20108;-49
2021/09/12 03:26:08;;;;;;;2.97;1.08;;;24.20;59.60;;;;;;5054592;28;20112;-53
2021/09/12 03:28:34;;;;;;;1.30;1.20;;;24.20;59.50;;;;;;5055464;28;20064;-48
2021/09/12 03:31:00;;;;;;;1.42;1.20;;;24.20;59.60;;;;;;5054446;28;20041;-49
2021/09/12 03:33:26;;;;;;;3.17;1.20;;;24.20;59.60;;;;;;5055292;28;20382;-50
2021/09/12 03:35:51;;;;;;;3.50;1.17;;;24.20;59.60;;;;;;5054347;28;20033;-58
2021/09/12 03:38:17;;;;;;;2.55;1.50;;;24.20;60.10;;;;;;5055193;28;20032;-52
2021/09/12 03:40:43;;;;;;;1.45;1.15;;;24.20;59.40;;;;;;5055176;28;20021;-49
2021/09/12 03:43:09;;;;;;;1.40;1.30;;;24.20;59.40;;;;;;5054491;28;20040;-47
2021/09/12 03:45:34;;;;;;;1.77;1.20;;;24.20;59.50;;;;;;5055011;28;20094;-53
2021/09/12 03:48:00;;;;;;;1.38;1.05;;;24.20;59.40;;;;;;5054399;28;20110;-48
2021/09/12 03:50:26;;;;;;;2.03;1.25;;;24.10;59.30;;;;;;5053959;28;20029;-51
2021/09/12 03:52:53;;;;;;;1.70;1.20;;;24.10;59.20;;;;;;5053924;28;20112;-54
2021/09/12 03:55:18;;;;;;;1.30;1.20;;;24.10;59.20;;;;;;5054514;28;20037;-51
2021/09/12 03:57:44;;;;;;;2.05;1.60;;;24.10;59.20;;;;;;5054855;28;20087;-52
2021/09/12 04:00:11;;;;;;;2.42;1.17;;;24.10;59.20;;;;;;5054167;28;20115;-52
2021/09/12 04:02:36;;;;;;;2.45;1.35;;;24.10;59.10;;;;;;5054656;28;20029;-51
2021/09/12 04:05:02;;;;;;;1.10;1.00;;;24.10;59.00;;;;;;5054008;28;20079;-52
2021/09/12 04:07:28;;;;;;;1.90;1.20;;;24.10;59.10;;;;;;5054958;28;20493;-51
2021/09/12 04:09:54;;;;;;;2.28;1.20;;;24.10;59.00;;;;;;5054059;28;20078;-47
2021/09/12 04:12:19;;;;;;;1.02;0.93;;;24.10;59.10;;;;;;5054580;28;20425;-47
2021/09/12 04:14:45;;;;;;;1.73;1.50;;;24.10;58.90;;;;;;5054272;28;20025;-47
2021/09/12 04:17:10;;;;;;;2.28;1.52;;;24.10;58.90;;;;;;5052513;28;20037;-47
2021/09/12 04:19:36;;;;;;;1.95;1.70;;;24.20;58.90;;;;;;5054627;28;20451;-50
2021/09/12 04:22:02;;;;;;;2.83;1.58;;;24.10;58.90;;;;;;5053500;28;20081;-48
2021/09/12 04:24:27;;;;;;;1.00;0.90;;;24.10;58.80;;;;;;5054485;28;20529;-48
2021/09/12 04:26:53;;;;;;;1.48;1.08;;;24.10;58.90;;;;;;5053796;28;20056;-56
2021/09/12 04:29:20;;;;;;;2.42;1.30;;;24.10;58.80;;;;;;5054321;28;20052;-48
2021/09/12 04:31:45;;;;;;;2.20;1.30;;;24.10;58.90;;;;;;5054242;28;20044;-51
2021/09/12 04:34:11;;;;;;;1.67;1.30;;;24.10;58.90;;;;;;5053544;28;20025;-51
2021/09/12 04:36:37;;;;;;;1.40;1.17;;;24.10;58.70;;;;;;5054390;28;20087;-51
2021/09/12 04:39:03;;;;;;;1.50;1.10;;;24.10;58.80;;;;;;5053308;28;20458;-50
2021/09/12 04:41:28;;;;;;;1.77;1.35;;;24.10;58.70;;;;;;5054323;28;20386;-48
2021/09/12 04:43:54;;;;;;;1.55;1.35;;;24.10;58.70;;;;;;5053288;28;20021;-51
2021/09/12 04:46:20;;;;;;;1.90;1.20;;;24.00;58.70;;;;;;5052876;28;20029;-48
2021/09/12 04:48:46;;;;;;;1.92;1.48;;;24.10;58.60;;;;;;5053867;28;20024;-49
2021/09/12 04:51:11;;;;;;;1.70;1.30;;;24.10;58.70;;;;;;5053524;28;20029;-50
2021/09/12 04:53:37;;;;;;;2.95;1.67;;;24.00;58.60;;;;;;5053851;28;20029;-48
2021/09/12 04:56:03;;;;;;;1.73;1.23;;;24.10;58.60;;;;;;5053222;28;20060;-48
2021/09/12 04:58:28;;;;;;;1.38;1.20;;;24.00;58.50;;;;;;5053688;28;20481;-50
2021/09/12 05:00:54;;;;;;;1.27;1.02;;;24.10;58.50;;;;;;5053425;28;20079;-58
2021/09/12 05:03:20;;;;;;;2.00;1.25;;;24.00;58.50;;;;;;5053149;28;20029;-47
2021/09/12 05:05:46;;;;;;;1.35;1.02;;;24.00;58.40;;;;;;5053439;28;20378;-48
2021/09/12 05:08:11;;;;;;;1.33;1.23;;;24.00;58.50;;;;;;5053127;28;20024;-49
2021/09/12 05:10:37;;;;;;;3.80;2.25;;;24.00;58.50;;;;;;5053523;28;20100;-48
2021/09/12 05:13:02;;;;;;;2.63;1.45;;;24.00;58.40;;;;;;5052541;28;20021;-50
2021/09/12 05:15:28;;;;;;;1.88;1.20;;;24.00;58.30;;;;;;5053473;28;20033;-49
2021/09/12 05:17:54;;;;;;;2.45;1.17;;;24.00;58.50;;;;;;5053329;28;20120;-52
2021/09/12 05:20:19;;;;;;;1.45;1.20;;;24.00;58.40;;;;;;5052925;28;20047;-48
2021/09/12 05:22:45;;;;;;;1.52;1.30;;;24.00;58.40;;;;;;5052955;28;20025;-48
2021/09/12 05:25:11;;;;;;;1.85;1.58;;;24.00;58.30;;;;;;5052332;28;20437;-52
2021/09/12 05:27:37;;;;;;;2.00;1.02;;;24.00;58.30;;;;;;5053086;28;20052;-51
2021/09/12 05:30:04;;;;;;;1.30;1.20;;;24.00;58.30;;;;;;5052165;28;20039;-50
2021/09/12 05:32:30;;;;;;;2.20;1.35;;;24.00;58.30;;;;;;5052815;28;20041;-51
2021/09/12 05:34:55;;;;;;;1.38;1.23;;;24.00;58.20;;;;;;5052056;28;20031;-59
2021/09/12 05:37:21;;;;;;;1.38;1.15;;;24.00;58.20;;;;;;5052944;28;20025;-49
2021/09/12 05:39:47;;;;;;;1.70;1.13;;;24.00;58.20;;;;;;5052921;28;20021;-48
2021/09/12 05:42:12;;;;;;;1.45;1.20;;;24.00;58.20;;;;;;5050994;28;20021;-49
2021/09/12 05:44:38;;;;;;;1.65;1.20;;;24.00;58.20;;;;;;5053008;28;20033;-50
2021/09/12 05:47:03;;;;;;;3.08;1.17;;;24.00;58.20;;;;;;5052267;28;20029;-48
2021/09/12 05:49:29;;;;;;;2.80;1.33;;;24.00;58.30;;;;;;5052718;28;20033;-47
2021/09/12 05:51:55;;;;;;;1.58;1.20;;;24.00;58.20;;;;;;5052563;28;20021;-53
2021/09/12 05:54:20;;;;;;;1.70;1.25;;;24.00;58.20;;;;;;5052375;28;20102;-49
2021/09/12 05:56:48;;;;;;;1.52;1.10;;;24.00;58.10;;;;;;5052277;28;20156;-48
2021/09/12 05:59:13;;;;;;;1.80;1.00;;;24.00;58.20;;;;;;5052162;28;20029;-48
2021/09/12 06:01:39;;;;;;;1.73;1.40;;;24.00;58.10;;;;;;5052231;28;20049;-48
2021/09/12 06:04:05;;;;;;;2.10;1.40;;;24.00;58.10;;;;;;5051649;28;20055;-49
2021/09/12 06:06:30;;;;;;;1.40;1.30;;;24.00;58.00;;;;;;5052776;28;20451;-47
2021/09/12 06:08:56;;;;;;;2.42;1.17;;;24.00;58.10;;;;;;5051919;28;20025;-60
2021/09/12 06:11:22;;;;;;;1.58;1.48;;;24.00;58.10;;;;;;5052413;28;20024;-51
2021/09/12 06:13:47;;;;;;;1.98;1.60;;;24.00;58.10;;;;;;5051700;28;20389;-51
2021/09/12 06:16:13;;;;;;;1.52;1.27;;;24.00;58.10;;;;;;5051828;28;20443;-47
2021/09/12 06:18:38;;;;;;;1.50;1.30;;;24.00;58.10;;;;;;5052075;28;20029;-48
2021/09/12 06:21:06;;;;;;;1.50;1.25;;;24.00;58.10;;;;;;5051713;28;20059;-49
2021/09/12 06:23:31;;;;;;;1.40;1.15;;;24.00;58.10;;;;;;5051963;28;20473;-49
2021/09/12 06:25:57;;;;;;;1.83;1.40;;;24.00;58.20;;;;;;5051501;28;20025;-55
2021/09/12 06:28:23;;;;;;;2.95;1.58;;;24.00;58.00;;;;;;5051898;28;20033;-50
2021/09/12 06:30:48;;;;;;;1.48;1.23;;;24.00;58.10;;;;;;5052481;28;20037;-49
2021/09/12 06:33:14;;;;;;;1.30;1.20;;;24.00;58.10;;;;;;5051856;28;20103;-48
2021/09/12 06:35:40;;;;;;;1.45;1.23;;;24.00;58.10;;;;;;5051968;28;20108;-51
2021/09/12 06:38:05;;;;;;;1.65;1.42;;;24.00;58.20;;;;;;5050937;28;20068;-49
2021/09/12 06:40:31;;;;;;;1.33;1.20;;;24.00;58.20;;;;;;5052213;28;20053;-48
2021/09/12 06:42:58;;;;;;;3.65;2.08;;;24.00;58.20;;;;;;5052303;28;20025;-49
2021/09/12 06:45:25;;;;;;;1.85;1.48;;;24.00;58.20;;;;;;5051823;28;20394;-52
2021/09/12 06:47:51;;;;;;;1.63;1.27;;;24.00;58.20;;;;;;5051327;28;20033;-49
2021/09/12 06:50:17;;;;;;;2.40;1.52;;;24.00;58.20;;;;;;5051001;28;20037;-50
2021/09/12 06:52:42;;;;;;;2.40;1.30;;;24.00;58.20;;;;;;5050514;28;20036;-51
2021/09/12 06:55:08;;;;;;;1.45;1.20;;;24.00;58.30;;;;;;5049606;28;20036;-54
2021/09/12 06:57:34;;;;;;;1.80;1.45;;;24.00;58.20;;;;;;5050262;28;20112;-49
2021/09/12 07:00:00;;;;;;;1.35;1.15;;;24.00;58.30;;;;;;5049678;28;20049;-58
2021/09/12 07:02:26;;;;;;;1.42;1.30;;;24.00;58.30;;;;;;5050098;28;20017;-48
2021/09/12 07:04:51;;;;;;;2.53;1.50;;;24.00;58.40;;;;;;5050210;28;20021;-51
2021/09/12 07:07:17;;;;;;;1.55;1.40;;;24.00;58.40;;;;;;5049285;28;20423;-50
2021/09/12 07:09:43;;;;;;;2.03;1.60;;;24.00;58.50;;;;;;5049977;28;20386;-48
2021/09/12 07:12:09;;;;;;;1.67;1.42;;;24.00;58.60;;;;;;5047853;28;20108;-47
2021/09/12 07:14:36;;;;;;;2.00;1.27;;;24.10;58.70;;;;;;5048869;28;20045;-52
2021/09/12 07:17:02;;;;;;;4.35;1.40;;;24.10;58.50;;;;;;5048320;28;20025;-59
2021/09/12 07:19:28;;;;;;;3.08;1.45;;;24.20;58.50;;;;;;5046796;28;20033;-54
2021/09/12 07:21:54;;;;;;;1.92;1.20;;;24.20;58.60;;;;;;5048700;28;20485;-49
2021/09/12 07:24:19;;;;;;;2.03;1.42;;;24.30;58.50;;;;;;5043768;28;20033;-53
2021/09/12 07:26:45;;;;;;;4.95;1.60;;;24.40;58.50;;;;;;5052831;28;20090;-53
2021/09/12 07:29:11;;;;;;;3.38;1.40;;;24.50;60.10;;;;;;5053273;28;20029;-53
2021/09/12 07:31:37;;;;;;;4.47;1.33;;;24.50;59.40;;;;;;5052851;28;20048;-48
2021/09/12 07:34:04;;;;;;;7.13;1.50;;;24.60;59.10;;;;;;5051971;28;20533;-53
2021/09/12 07:36:30;;;;;;;1.50;1.30;;;24.60;59.20;;;;;;5052819;28;20099;-50
2021/09/12 07:38:56;;;;;;;3.65;1.27;;;24.60;59.20;;;;;;5052260;28;20390;-50
2021/09/12 07:41:22;;;;;;;2.47;1.50;;;24.60;59.30;;;;;;5051864;28;20037;-50
2021/09/12 07:43:48;;;;;;;3.40;1.40;;;24.70;59.30;;;;;;5052682;28;20029;-50
2021/09/12 07:46:13;;;;;;;3.55;1.40;;;24.80;59.50;;;;;;5051446;28;20033;-51
2021/09/12 07:48:39;;;;;;;3.15;1.45;;;24.80;59.40;;;;;;5051837;28;20040;-54
2021/09/12 07:51:06;;;;;;;2.97;1.30;;;24.90;59.40;;;;;;5051716;28;20814;-54
2021/09/12 07:53:33;;;;;;;2.72;1.38;;;24.90;59.20;;;;;;5052097;28;20060;-52
2021/09/12 07:55:58;;;;;;;2.33;1.92;;;25.00;59.20;;;;;;5052088;28;20025;-56
2021/09/12 07:58:24;;;;;;;3.38;1.58;;;25.00;59.20;;;;;;5051350;28;20066;-51
2021/09/12 08:00:50;;;;;;;3.13;1.55;;;25.00;59.10;;;;;;5052192;28;20053;-53
2021/09/12 08:03:17;;;;;;;3.00;1.48;;;25.00;59.10;;;;;;5052026;28;20040;-47
2021/09/12 08:05:43;;;;;;;3.67;1.23;;;25.00;59.10;;;;;;5052212;28;20021;-47
2021/09/12 08:08:09;;;;;;;3.20;1.42;;;25.00;59.10;;;;;;5051026;28;20082;-49
2021/09/12 08:10:34;;;;;;;1.58;1.20;;;25.10;59.00;;;;;;5051982;28;20079;-49
2021/09/12 08:13:00;;;;;;;4.53;1.45;;;25.10;59.00;;;;;;5052009;28;20035;-55
2021/09/12 08:15:26;;;;;;;1.70;1.13;;;25.10;59.00;;;;;;5051526;28;20078;-47
2021/09/12 08:17:52;;;;;;;3.00;1.27;;;25.10;59.00;;;;;;5051863;28;20463;-47
2021/09/12 08:20:18;;;;;;;3.30;1.27;;;25.20;58.90;;;;;;5051168;28;20036;-48
2021/09/12 08:22:43;;;;;;;3.90;1.17;;;25.20;59.00;;;;;;5051172;28;20032;-51
2021/09/12 08:25:10;;;;;;;3.22;1.27;;;25.20;58.90;;;;;;5049909;28;20110;-47
2021/09/12 08:27:36;;;;;;;3.10;1.27;;;25.20;58.90;;;;;;5052141;28;20458;-49
2021/09/12 08:30:02;;;;;;;2.03;1.27;;;25.20;58.90;;;;;;5051863;28;20044;-48
2021/09/12 08:32:27;;;;;;;10.57;1.58;;;25.20;58.80;;;;;;5052865;28;20060;-48
2021/09/12 08:34:53;;;;;;;1.40;1.23;;;25.20;58.80;;;;;;5052363;28;20029;-51
2021/09/12 08:37:20;;;;;;;3.03;1.50;;;25.30;58.80;;;;;;5051045;28;20402;-52
2021/09/12 08:39:46;;;;;;;2.72;1.25;;;25.30;58.70;;;;;;5051821;28;20079;-47
2021/09/12 08:42:15;;;;;;;2.00;1.17;;;25.30;58.60;;;;;;5051908;28;20382;-52
2021/09/12 08:44:48;;;;;;;5.28;1.55;;;25.30;58.60;;;;;;5053766;28;20048;-51
2021/09/12 08:47:15;;;;;;;3.08;1.33;;;25.30;58.50;;;;;;5053196;28;20033;-48
2021/09/12 08:49:42;;;;;;;2.78;1.60;;;25.30;58.70;;;;;;5053854;28;20489;-49
2021/09/12 08:52:08;;;;;;;7.40;1.55;;;25.20;58.90;;;;;;5053117;28;20095;-54
2021/09/12 08:54:34;;;;;;;5.30;1.25;;;25.30;59.10;;;;;;5053296;28;20029;-47
2021/09/12 08:57:00;;;;;;;8.43;1.88;;;25.30;58.70;;;;;;5053329;28;20414;-46
2021/09/12 08:59:28;;;;;;;6.78;1.60;;;25.30;58.50;;;;;;5054002;28;20037;-50
2021/09/12 09:01:56;;;;;;;4.03;1.60;;;25.30;59.30;;;;;;5053028;28;20057;-48
2021/09/12 09:04:24;;;;;;;4.65;1.58;;;25.30;58.40;;;;;;5052838;28;20028;-47
2021/09/12 09:06:58;;;;;;;6.20;1.40;;;25.30;58.70;;;;;;5053774;28;20489;-50
2021/09/12 09:09:40;;;;;;;6.93;1.95;;;25.30;58.50;;;;;;5053071;28;20032;-49
2021/09/12 09:12:25;;;;;;;6.50;1.45;;;25.30;58.50;;;;;;5033010;28;20030;-47
2021/09/12 09:15:11;;;;;;;7.78;1.88;;;25.30;58.70;;;;;;5033510;28;20072;-45
2021/09/12 09:17:41;;;;;;;5.03;1.48;;;25.30;58.80;;;;;;5035846;28;20120;-63
2021/09/12 09:20:09;;;;;;;5.80;1.60;;;25.20;58.80;;;;;;5035623;28;20040;-61
2021/09/12 09:22:38;;;;;;;4.03;1.40;;;25.20;59.30;;;;;;5033248;28;20049;-62
2021/09/12 09:25:13;;;;;;;7.35;1.63;;;25.20;59.30;;;;;;5032714;28;20030;-58
2021/09/12 09:28:07;;;;;;;3.85;1.55;;;25.20;58.80;;;;;;5033315;28;20478;-59
2021/09/12 09:30:53;;;;;;;4.95;1.92;;;25.30;59.10;;;;;;5032982;28;20444;-62
2021/09/12 09:33:26;;;;;;;14.18;2.20;;;25.30;59.30;;;;;;5032547;28;20379;-64
2021/09/12 09:35:55;;;;;;;3.63;1.40;;;25.30;59.00;;;;;;5033053;28;20120;-62
2021/09/12 09:38:23;;;;;;;2.58;1.30;;;25.30;58.90;;;;;;5032542;28;20086;-60
2021/09/12 09:41:10;;;;;;;3.45;1.50;;;25.30;58.90;;;;;;5036216;28;20449;-60
2021/09/12 09:43:40;;;;;;;5.53;1.50;;;25.30;59.30;;;;;;5033468;28;20029;-61
2021/09/12 09:46:24;;;;;;;4.70;1.40;;;25.20;59.50;;;;;;5036726;28;20036;-60
2021/09/12 09:48:49;;;;;;;2.70;1.38;;;25.20;59.50;;;;;;5033281;28;20113;-61
2021/09/12 09:51:17;;;;;;;2.13;1.27;;;25.20;59.50;;;;;;5031977;28;20435;-62
2021/09/12 09:53:43;;;;;;;3.92;1.60;;;25.20;59.30;;;;;;5032396;28;20022;-61
2021/09/12 09:56:09;;;;;;;5.15;1.40;;;25.10;59.50;;;;;;5032278;28;20076;-61
2021/09/12 09:58:36;;;;;;;4.10;1.40;;;25.10;58.90;;;;;;5032448;28;20124;-61
2021/09/12 10:01:03;;;;;;;5.40;1.40;;;25.10;58.70;;;;;;5032241;28;20064;-61
2021/09/12 10:03:29;;;;;;;3.92;1.60;;;25.20;58.80;;;;;;5032660;28;20034;-62
2021/09/12 10:05:55;;;;;;;9.77;2.33;;;25.10;58.40;;;;;;5032692;28;20036;-61
2021/09/12 10:08:21;;;;;;;15.38;3.20;;;25.10;58.70;;;;;;5031726;28;20025;-62
2021/09/12 10:10:48;;;;;;;4.22;1.35;;;25.10;58.70;;;;;;5041845;28;20574;-62
2021/09/12 10:13:15;;;;;;;8.68;1.83;;;25.10;58.60;;;;;;5051503;28;20046;-61
2021/09/12 10:15:42;;;;;;;5.57;1.88;;;25.10;58.30;;;;;;5052347;28;20116;-61
2021/09/12 10:18:10;;;;;;;8.35;1.88;;;25.10;58.10;;;;;;5051801;28;20037;-61
2021/09/12 10:20:37;;;;;;;3.80;1.77;;;25.10;58.00;;;;;;5052315;28;20035;-60
2021/09/12 10:23:06;;;;;;;8.80;2.20;;;25.10;57.90;;;;;;5052213;28;20366;-61
2021/09/12 10:25:49;;;;;;;3.58;1.70;;;25.10;57.80;;;;;;5052324;28;20033;-62
2021/09/12 10:28:32;;;;;;;4.43;1.25;;;25.10;57.70;;;;;;5051142;28;20029;-61
2021/09/12 10:30:59;;;;;;;4.20;1.27;;;25.00;57.40;;;;;;5052517;28;20036;-61
2021/09/12 10:33:27;;;;;;;3.00;1.30;;;25.10;57.30;;;;;;5051647;28;20485;-62
2021/09/12 10:36:03;;;;;;;4.65;1.83;;;25.10;57.20;;;;;;5052075;28;20036;-61
2021/09/12 10:38:38;;;;;;;3.45;1.45;;;25.10;57.00;;;;;;5051488;28;20029;-61
2021/09/12 10:41:03;;;;;;;2.92;1.30;;;25.10;57.10;;;;;;5050261;28;20386;-61
2021/09/12 10:43:30;;;;;;;3.58;1.52;;;25.10;57.00;;;;;;5051418;28;20032;-61
2021/09/12 10:46:01;;;;;;;2.72;1.20;;;25.10;56.90;;;;;;5051928;28;20111;-62
2021/09/12 10:48:29;;;;;;;3.70;1.85;;;25.10;56.70;;;;;;5051420;28;20402;-62
2021/09/12 10:50:56;;;;;;;3.08;1.73;;;25.10;56.60;;;;;;5052016;28;20378;-61
2021/09/12 10:53:47;;;;;;;3.65;1.50;;;25.10;56.50;;;;;;5051300;28;20025;-62
2021/09/12 10:56:15;;;;;;;3.47;1.25;;;25.10;56.50;;;;;;5051425;28;20024;-61
2021/09/12 10:58:42;;;;;;;2.38;1.30;;;25.10;56.30;;;;;;5051671;28;20111;-62
2021/09/12 11:01:11;;;;;;;2.22;1.20;;;25.10;56.10;;;;;;5053496;28;20403;-61
2021/09/12 11:03:37;;;;;;;3.03;1.33;;;25.10;56.00;;;;;;5055527;28;20108;-61
2021/09/12 11:06:03;;;;;;;1.70;1.30;;;25.10;56.00;;;;;;5055733;28;20120;-63
2021/09/12 11:08:46;;;;;;;2.40;1.20;;;25.20;55.90;;;;;;5055055;28;20122;-61
2021/09/12 11:11:12;;;;;;;3.47;1.20;;;25.20;55.80;;;;;;5054759;28;20029;-61
2021/09/12 11:13:39;;;;;;;1.48;1.10;;;25.10;55.70;;;;;;5055591;28;20513;-62
2021/09/12 11:16:16;;;;;;;2.08;1.20;;;25.10;55.60;;;;;;5055579;28;20028;-52
2021/09/12 11:18:58;;;;;;;2.25;1.40;;;25.10;55.90;;;;;;5055383;28;20029;-48
2021/09/12 11:21:24;;;;;;;;;;;25.10;55.80;;;;;;5055495;28;20162;-49
2021/09/12 11:23:55;;;;;;;2.17;1.20;;;25.10;55.50;;;;;;5055433;28;20396;-49
2021/09/12 11:26:21;;;;;;;;;;;25.10;55.60;;;;;;5055678;28;20036;-47
2021/09/12 11:29:03;;;;;;;1.58;1.20;;;25.10;55.70;;;;;;5055126;28;19916;-47
2021/09/12 11:31:30;;;;;;;2.13;1.20;;;25.00;55.50;;;;;;5054998;28;20140;-48
2021/09/12 11:33:56;;;;;;;1.42;1.10;;;25.10;55.60;;;;;;5055702;28;20059;-53
2021/09/12 11:36:23;;;;;;;1.20;0.98;;;25.00;55.50;;;;;;5054964;28;20383;-49
2021/09/12 11:38:58;;;;;;;1.85;1.20;;;25.00;55.50;;;;;;5054689;28;20074;-47
2021/09/12 11:41:26;;;;;;;2.03;1.00;;;25.00;55.30;;;;;;5053927;28;20363;-47
2021/09/12 11:43:57;;;;;;;1.88;1.00;;;25.00;55.60;;;;;;5054712;28;20355;-47
2021/09/12 11:46:23;;;;;;;2.38;1.25;;;25.00;55.60;;;;;;5054472;28;20060;-51
2021/09/12 11:48:57;;;;;;;3.13;1.25;;;25.00;55.50;;;;;;5055002;28;20443;-49
2021/09/12 11:51:28;;;;;;;1.10;0.88;;;24.90;55.80;;;;;;5054328;28;20025;-47
2021/09/12 11:54:12;;;;;;;1.48;1.10;;;25.00;55.80;;;;;;5055068;28;20024;-50
2021/09/12 11:56:40;;;;;;;1.30;1.08;;;24.90;55.60;;;;;;5054896;28;20064;-46
2021/09/12 11:59:09;;;;;;;1.58;1.02;;;24.90;55.70;;;;;;5054463;28;20076;-45
2021/09/12 12:01:36;;;;;;;3.22;1.00;;;24.90;55.70;;;;;;5054219;28;20502;-47
2021/09/12 12:04:03;;;;;;;1.42;1.13;;;24.90;55.70;;;;;;5054457;28;20025;-49
2021/09/12 12:06:30;;;;;;;3.08;1.20;;;24.90;55.60;;;;;;5054044;28;20039;-46
2021/09/12 12:09:03;;;;;;;1.52;1.20;;;24.90;55.70;;;;;;5054614;28;20032;-46
2021/09/12 12:11:28;;;;;;;3.92;1.20;;;24.90;55.40;;;;;;5053003;28;20139;-46
2021/09/12 12:13:54;;;;;;;2.45;1.15;;;24.90;55.30;;;;;;5054073;28;20111;-48
2021/09/12 12:16:20;;;;;;;1.67;1.20;;;24.90;55.30;;;;;;5053836;28;20086;-46
2021/09/12 12:18:45;;;;;;;1.30;1.17;;;24.90;55.40;;;;;;5052268;28;20037;-47
2021/09/12 12:21:12;;;;;;;2.13;1.17;;;25.00;55.10;;;;;;5053515;28;20029;-48
2021/09/12 12:23:41;;;;;;;0.95;0.88;;;25.00;54.90;;;;;;5054347;28;20032;-48
2021/09/12 12:26:19;;;;;;;1.50;1.40;;;25.10;55.00;;;;;;5054242;28;20124;-51
2021/09/12 12:28:59;;;;;;;1.33;1.00;;;25.00;54.70;;;;;;5054158;28;20029;-47
2021/09/12 12:31:25;;;;;;;3.15;1.17;;;25.10;54.70;;;;;;5053507;28;20029;-50
2021/09/12 12:33:51;;;;;;;1.23;1.08;;;25.20;54.40;;;;;;5054117;28;20091;-49
2021/09/12 12:36:21;;;;;;;1.92;1.30;;;25.20;54.30;;;;;;5053592;28;20482;-48
2021/09/12 12:38:47;;;;;;;1.45;0.95;;;25.20;54.20;;;;;;5053096;28;20025;-48
2021/09/12 12:41:19;;;;;;;1.40;1.30;;;25.30;54.00;;;;;;5053288;28;20068;-49
2021/09/12 12:43:45;;;;;;;1.20;1.05;;;25.20;54.20;;;;;;5054042;28;20033;-51
2021/09/12 12:46:11;;;;;;;1.75;1.00;;;25.30;54.10;;;;;;5053046;28;20406;-51
2021/09/12 12:48:42;;;;;;;1.67;1.15;;;25.30;53.90;;;;;;5066174;28;20029;-51